Chicago O'Hare International Airport
KORD : rendu visible

Aérodrome :











RETROUVEZ-NOUS SUR...

 
LOGIN :

S'inscrire | Disclaimer

   EN    FR    IT 

 









Légende :    VFR   VFR Marginal   IFR   IFR Intensif   IFR Très Intensif
Visi : 
Plafond : 
>= 8 km
>= 3000ft
5 à 8 km
1000 à 3000 ft
1500m à 5 km
500 à 1000 ft
800 à 1500m
200 à 500 ft
< 800m
< 200 ft
Symboles :   Orages  Brouillard  Fortes neiges  Fortes précipitations  Vent > 20 kt






- Altitude de l'aérodrome : 672 ft
- Code IATA : ORD


KORD - Chicago O'Hare International

DERNIER METAR :
  • 080951Z 08003KT 9SM OVC013 11/09 A2973 RMK AO2 SLP064 T01110089

METARs EXPIRÉS :
  • 080941Z 07003KT 9SM OVC014 11/09 A2973 RMK AO2 T01110089
  • 080851Z 05004KT 8SM FEW007 OVC016 11/09 A2972 RMK AO2 SLP061 T01110089 51009
  • 080817Z 04006KT 9SM SCT007 OVC018 11/09 A2972 RMK AO2 T01060089
  • 080751Z 04008KT 9SM OVC017 11/09 A2972 RMK AO2 SLP060 T01110089

TAF KORD
Valide du 08 à 07h jusqu'au 09 à 12h UTC


080724Z 0807/0912 07004KT P6SM SCT015
FM080800 08004KT 4SM BR OVC015
FM081500 22008KT P6SM SCT050
FM082100 33012G18KT P6SM SCT025 OVC050
TEMPO 0821/0901 6SM -SHRA OVC030
FM090400 30014G22KT P6SM SKC



MET'MAP, la Météo Aéronautique d'un coup d'oeil ! - Copyright ORBIFLY Décembre 2007 - Disclaimer

ORBIFLY MET'MAP TEAM :

Programmation & Développement : Alexandra Zaïnal
Sur une idée originale de : Baudouin d'Aumeries
Assistance à la programmation : Marc-Olivier Méhu
Soutien technique & logistique : Manuel Goepfert

Contact : metmap@orbifly.com




SOURCES & CREDITS :

   NOAA       Earth
Advisory